Time;durP1;ratioP1;P1;durP2;ratioP2;P2;SDS_P1;SDS_P2;PMS_P1;PMS_P2;Temp;Humidity;BMP_temperature;BMP_pressure;BME280_temperature;BME280_humidity;BME280_pressure;Samples;Min_cycle;Max_cycle;Signal;HPM_P1;HPM_P2
2021/10/23 00:01:44;;;;;;;19.70;10.18;;;;;;;15.04;70.21;101487.38;1777206;81;21321;-77
2021/10/23 00:04:17;;;;;;;22.42;10.03;;;;;;;15.05;70.27;101489.09;1777525;81;21364;-78
2021/10/23 00:06:50;;;;;;;19.85;10.28;;;;;;;15.05;70.33;101496.09;1777725;81;21364;-77
2021/10/23 00:09:23;;;;;;;27.93;10.55;;;;;;;15.08;70.53;101496.93;1777708;81;21344;-77
2021/10/23 00:11:56;;;;;;;;;;;;;;;15.11;70.54;101486.61;1780256;81;21185;-76
2021/10/23 00:14:28;;;;;;;24.37;10.78;;;;;;;15.12;70.58;101484.09;1777653;81;20256;-76
2021/10/23 00:17:03;;;;;;;23.02;10.82;;;;;;;15.10;70.78;101480.70;1777537;81;21691;-78
2021/10/23 00:19:35;;;;;;;25.10;12.00;;;;;;;15.12;70.85;101483.23;1777607;81;21826;-76
2021/10/23 00:22:11;;;;;;;21.52;11.48;;;;;;;15.11;70.75;101486.61;1777423;81;21392;-76
2021/10/23 00:24:43;;;;;;;26.62;12.45;;;;;;;15.09;70.62;101486.02;1777604;81;21838;-75
2021/10/23 00:27:16;;;;;;;23.52;12.80;;;;;;;15.05;70.78;101493.29;1777517;81;21346;-76
2021/10/23 00:29:48;;;;;;;;;;;;;;;15.03;70.88;101489.08;1780028;81;21372;-76
2021/10/23 00:32:21;;;;;;;26.55;12.55;;;;;;;15.08;70.80;101484.88;1777648;81;20231;-76
2021/10/23 00:34:53;;;;;;;27.48;13.32;;;;;;;15.13;70.70;101476.53;1770063;81;21748;-76
2021/10/23 00:37:27;;;;;;;25.00;13.08;;;;;;;15.14;70.54;101474.87;1768945;81;21875;-76
2021/10/23 00:39:59;;;;;;;28.55;13.28;;;;;;;15.17;70.50;101464.55;1748656;81;21834;-75
2021/10/23 00:42:34;;;;;;;26.80;14.15;;;;;;;15.20;70.51;101469.58;1752454;82;21746;-76
2021/10/23 00:45:08;;;;;;;28.30;12.80;;;;;;;15.20;70.49;101467.33;1747244;82;21660;-76
2021/10/23 00:47:42;;;;;;;24.60;11.95;;;;;;;15.20;70.55;101466.78;1752310;81;21678;-75
2021/10/23 00:50:21;;;;;;;29.23;13.50;;;;;;;15.20;70.65;101463.98;1726182;82;21186;-75
2021/10/23 00:52:52;;;;;;;21.62;12.07;;;;;;;15.23;70.78;101472.39;1747361;82;21311;-79
2021/10/23 00:55:24;;;;;;;21.60;13.35;;;;;;;15.24;70.84;101472.13;1752293;82;21185;-77
2021/10/23 00:57:57;;;;;;;24.95;12.70;;;;;;;15.27;70.79;101469.35;1747394;82;21375;-78
2021/10/23 01:00:30;;;;;;;27.50;12.53;;;;;;;15.28;70.72;101469.05;1752570;80;21242;-78
2021/10/23 01:03:03;;;;;;;24.23;13.25;;;;;;;15.30;70.71;101466.84;1747659;82;21213;-78
2021/10/23 01:05:39;;;;;;;27.15;12.82;;;;;;;15.31;70.62;101471.33;1752534;79;21244;31
2021/10/23 01:08:13;;;;;;;21.85;11.30;;;;;;;15.31;70.69;101476.06;1717386;83;21186;-76
2021/10/23 01:10:46;;;;;;;25.37;13.78;;;;;;;15.30;70.76;101474.39;1717330;83;21783;-77
2021/10/23 01:13:19;;;;;;;;;;;;;;;15.26;70.77;101478.83;1719970;83;21198;-76
2021/10/23 01:15:52;;;;;;;29.02;12.93;;;;;;;15.26;71.02;101482.48;1717441;82;20200;-76
2021/10/23 01:18:25;;;;;;;25.90;13.78;;;;;;;15.27;71.20;101484.73;1715529;83;21933;-77
2021/10/23 01:20:57;;;;;;;29.98;12.90;;;;;;;15.27;71.12;101480.55;1729685;82;21902;-76
2021/10/23 01:23:30;;;;;;;21.45;11.97;;;;;;;15.28;71.24;101478.84;1754538;82;21169;-77
2021/10/23 01:26:03;;;;;;;21.40;11.60;;;;;;;15.28;71.22;101478.02;1769957;79;22212;-76
2021/10/23 01:28:39;;;;;;;23.62;12.00;;;;;;;15.27;71.31;101484.16;1748569;82;21413;-77
2021/10/23 01:31:12;;;;;;;24.55;14.00;;;;;;;15.27;71.35;101479.14;1770037;79;21835;-76
2021/10/23 01:33:45;;;;;;;23.55;12.03;;;;;;;15.29;71.45;101477.77;1749080;82;21342;-76
2021/10/23 01:36:20;;;;;;;20.90;12.98;;;;;;;15.32;71.38;101477.23;1770135;79;21200;-76
2021/10/23 01:38:54;;;;;;;24.40;13.00;;;;;;;15.33;71.34;101474.71;1748801;81;21197;-76
2021/10/23 01:41:26;;;;;;;24.05;12.35;;;;;;;15.34;71.37;101478.37;1769923;79;21165;-76
2021/10/23 01:43:59;;;;;;;24.07;12.37;;;;;;;15.33;71.43;101478.91;1749148;80;21227;-77
2021/10/23 01:46:33;;;;;;;33.33;13.07;;;;;;;15.31;71.50;101462.07;1749243;82;21339;-76
2021/10/23 01:49:06;;;;;;;22.05;11.65;;;;;;;15.29;71.49;101467.11;1769860;81;21186;-76
2021/10/23 01:51:40;;;;;;;21.30;10.72;;;;;;;15.29;71.68;101473.56;1719105;83;21207;-77
2021/10/23 01:54:12;;;;;;;24.75;11.75;;;;;;;15.29;71.68;101473.56;1748698;82;21338;-77
2021/10/23 01:56:45;;;;;;;19.07;11.53;;;;;;;15.29;71.76;101476.91;1777975;81;21340;-79
2021/10/23 01:59:17;;;;;;;26.20;11.68;;;;;;;15.31;71.90;101483.92;1777753;79;21845;-77
2021/10/23 02:01:50;;;;;;;22.25;12.93;;;;;;;15.30;71.88;101486.44;1778104;80;21358;-77
2021/10/23 02:04:45;;;;;;;27.00;11.65;;;;;;;15.25;71.97;101493.40;1749020;82;21255;-77
2021/10/23 02:07:18;;;;;;;23.50;11.85;;;;;;;15.19;72.11;101491.69;1729726;82;21345;-79
2021/10/23 02:09:51;;;;;;;25.68;11.40;;;;;;;15.15;72.25;101489.71;1715389;83;21340;-77
2021/10/23 02:12:25;;;;;;;21.30;10.65;;;;;;;15.14;72.46;101502.84;1715399;83;21341;-79
2021/10/23 02:14:58;;;;;;;22.10;11.28;;;;;;;15.14;72.57;101505.64;1715313;83;21345;-78
2021/10/23 02:17:31;;;;;;;27.60;11.57;;;;;;;15.15;72.61;101503.70;1715445;83;21203;-78
2021/10/23 02:20:09;;;;;;;30.10;11.35;;;;;;;15.13;72.74;101506.76;1715454;83;21207;-79
2021/10/23 02:22:42;;;;;;;28.42;12.53;;;;;;;15.12;72.79;101500.88;1715526;83;21357;-78
2021/10/23 02:25:18;;;;;;;21.10;10.82;;;;;;;15.14;72.82;101501.98;1715357;82;21967;-78
2021/10/23 02:27:50;;;;;;;24.43;11.95;;;;;;;15.14;72.81;101502.84;1727119;81;21845;-77
2021/10/23 02:30:23;;;;;;;23.85;11.33;;;;;;;15.12;72.87;101500.03;1728017;81;21205;-76
2021/10/23 02:32:57;;;;;;;23.50;11.48;;;;;;;15.15;73.00;101497.53;1728190;81;21225;-78
2021/10/23 02:35:29;;;;;;;22.07;10.95;;;;;;;15.16;72.88;101496.41;1728242;83;21185;-78
2021/10/23 02:38:02;;;;;;;23.67;12.05;;;;;;;15.20;72.89;101502.30;1728074;83;21719;-77
2021/10/23 02:40:38;;;;;;;21.95;11.15;;;;;;;15.20;72.89;101502.30;1760897;77;21411;-76
2021/10/23 02:43:12;;;;;;;17.27;10.23;;;;;;;15.20;72.93;101510.70;1789066;80;21174;-76
2021/10/23 02:45:46;;;;;;;18.55;9.98;;;;;;;15.18;72.98;101512.39;1781716;80;21328;-75
2021/10/23 02:48:19;;;;;;;25.65;11.90;;;;;;;15.18;73.04;101508.20;1781803;80;21329;-76
2021/10/23 02:50:51;;;;;;;28.98;10.93;;;;;;;15.18;73.15;101515.19;1781654;80;21368;-75
2021/10/23 02:53:24;;;;;;;20.02;11.55;;;;;;;15.18;73.28;101516.59;1781585;80;21328;-76
2021/10/23 02:55:58;;;;;;;20.27;10.35;;;;;;;15.16;73.33;101517.39;1781752;80;21328;-76
2021/10/23 02:58:32;;;;;;;25.17;12.47;;;;;;;15.11;73.29;101520.73;1781867;80;21778;-77
2021/10/23 03:01:06;;;;;;;21.93;10.25;;;;;;;15.04;73.62;101518.73;1781715;80;21385;-77
2021/10/23 03:03:39;;;;;;;25.02;10.38;;;;;;;15.04;73.62;101518.73;1781831;80;21328;-74
2021/10/23 03:06:17;;;;;;;19.92;11.20;;;;;;;15.04;73.63;101521.52;1781760;80;21383;-77
2021/10/23 03:08:47;;;;;;;26.50;11.22;;;;;;;15.05;73.75;101517.06;1781678;80;21340;-76
2021/10/23 03:11:22;;;;;;;27.50;10.75;;;;;;;15.10;73.69;101521.84;1782280;80;21343;-77
2021/10/23 03:13:56;;;;;;;22.82;11.12;;;;;;;15.08;73.65;101516.52;1781842;80;21183;-77
2021/10/23 03:16:30;;;;;;;31.82;12.58;;;;;;;15.04;73.67;101517.33;1759318;80;21379;-77
2021/10/23 03:19:03;;;;;;;25.60;11.50;;;;;;;15.02;73.84;101522.36;1781749;80;21175;-78
2021/10/23 03:21:36;;;;;;;20.45;11.05;;;;;;;15.00;73.85;101514.77;1781616;80;21865;-77
2021/10/23 03:24:32;;;;;;;21.27;10.60;;;;;;;14.98;73.95;101516.44;1781705;80;21329;-78
2021/10/23 03:27:04;;;;;;;25.12;11.40;;;;;;;14.97;74.12;101503.56;1719565;83;21233;-77
2021/10/23 03:29:37;;;;;;;23.75;10.55;;;;;;;15.02;74.22;101503.61;1719538;83;21281;-75
2021/10/23 03:32:10;;;;;;;27.87;11.80;;;;;;;15.04;74.17;101501.95;1719573;83;21875;-76
2021/10/23 03:34:43;;;;;;;;;;;;;;;15.04;74.16;101508.94;1722068;83;21341;-76
2021/10/23 03:37:15;;;;;;;21.75;9.23;;;;;;;15.00;74.24;101507.23;1719508;83;20600;-76
2021/10/23 03:39:50;;;;;;;21.97;9.43;;;;;;;14.99;74.40;101516.75;1719683;83;21372;-76
2021/10/23 03:42:25;;;;;;;20.48;10.58;;;;;;;14.98;74.56;101519.23;1719458;83;21344;-77
2021/10/23 03:44:58;;;;;;;18.77;10.10;;;;;;;14.96;74.62;101513.07;1719454;83;21332;-77
2021/10/23 03:47:31;;;;;;;22.93;11.83;;;;;;;14.99;74.64;101515.89;1719466;83;21810;-77
2021/10/23 03:50:04;;;;;;;25.40;11.20;;;;;;;14.99;74.61;101514.49;1719725;83;21830;-75
2021/10/23 03:52:36;;;;;;;34.67;10.88;;;;;;;14.96;74.66;101527.05;1719578;83;21885;-78
2021/10/23 03:55:10;;;;;;;35.17;11.10;;;;;;;14.93;74.68;101526.22;1719969;83;21376;-78
2021/10/23 03:57:44;;;;;;;35.15;11.35;;;;;;;14.94;74.80;101524.23;1719545;83;21340;-78
2021/10/23 04:00:16;;;;;;;25.27;11.83;;;;;;;14.95;74.88;101529.57;1721060;83;21882;-80
2021/10/23 04:02:49;;;;;;;31.10;12.20;;;;;;;14.98;74.79;101526.80;1723726;83;21320;-77
2021/10/23 04:05:24;;;;;;;31.20;12.78;;;;;;;14.98;74.73;101527.63;1721066;83;21384;-78
2021/10/23 04:07:57;;;;;;;26.50;12.98;;;;;;;14.96;74.63;101517.27;1719796;83;21246;-78
2021/10/23 04:10:30;;;;;;;26.87;11.70;;;;;;;14.93;74.55;101517.82;1719938;83;21257;-77
2021/10/23 04:13:04;;;;;;;31.40;12.65;;;;;;;14.93;74.58;101515.56;1719637;83;21403;-79
2021/10/23 04:15:39;;;;;;;34.38;12.70;;;;;;;14.96;74.66;101521.47;1719617;83;21377;-78
2021/10/23 04:18:11;;;;;;;27.95;12.00;;;;;;;14.99;74.63;101534.92;1719890;83;21403;-78
2021/10/23 04:20:45;;;;;;;30.48;12.55;;;;;;;15.00;74.64;101532.95;1719723;83;21197;-76
2021/10/23 04:26:13;;;;;;;27.93;12.20;;;;;;;15.06;74.52;101550.91;1809955;79;21702;-77
2021/10/23 04:28:45;;;;;;;37.03;14.00;;;;;;;15.00;74.58;101547.80;1824584;77;21391;-77
2021/10/23 04:31:18;;;;;;;30.50;12.75;;;;;;;14.96;74.52;101548.03;1834334;77;21182;-77
2021/10/23 04:33:51;;;;;;;31.23;13.15;;;;;;;14.95;74.59;101558.08;1756705;80;21336;-75
2021/10/23 04:36:26;;;;;;;36.25;15.13;;;;;;;14.93;74.77;101558.38;1737303;82;21244;-77
2021/10/23 04:38:59;;;;;;;28.60;14.30;;;;;;;14.94;74.89;101552.20;1772363;80;21376;-77
2021/10/23 04:41:32;;;;;;;46.42;16.40;;;;;;;14.94;74.91;101554.46;1768175;80;21375;-78
2021/10/23 04:44:05;;;;;;;35.63;15.83;;;;;;;14.94;74.95;101550.27;1765173;80;21353;-76
2021/10/23 04:46:37;;;;;;;40.70;15.03;;;;;;;14.94;75.00;101548.02;1750041;80;21170;-77
2021/10/23 04:49:10;;;;;;;41.73;15.35;;;;;;;14.95;75.00;101555.28;1787648;78;21798;-77
2021/10/23 04:51:43;;;;;;;32.88;15.15;;;;;;;14.96;75.03;101563.41;1775407;80;21138;-77
2021/10/23 04:54:16;;;;;;;39.87;16.90;;;;;;;14.96;75.04;101562.02;1755389;80;21185;-77
2021/10/23 04:56:48;;;;;;;35.55;16.00;;;;;;;14.94;75.16;101571.25;1755226;82;21341;-76
2021/10/23 04:59:23;;;;;;;42.95;17.62;;;;;;;14.93;75.24;101566.77;1755084;81;21241;-79
2021/10/23 05:01:56;;;;;;;40.90;16.25;;;;;;;14.94;75.21;101567.05;1756958;80;21345;-77
2021/10/23 05:04:29;;;;;;;46.30;15.58;;;;;;;14.94;75.20;101568.45;1781311;80;22015;-78
2021/10/23 05:07:01;;;;;;;39.83;16.12;;;;;;;14.94;75.14;101569.84;1773446;80;21300;-80
2021/10/23 05:13:03;;;;;;;52.73;17.20;;;;;;;14.93;75.33;101570.11;1773476;79;22406;-78
2021/10/23 05:15:37;;;;;;;66.65;18.77;;;;;;;14.96;75.35;101576.00;1741174;81;21183;-76
2021/10/23 05:18:09;;;;;;;43.68;17.32;;;;;;;14.97;75.36;101581.88;1753717;80;21881;-75
2021/10/23 05:20:42;;;;;;;43.60;19.48;;;;;;;14.97;75.33;101582.45;1791991;79;21270;-74
2021/10/23 05:23:18;;;;;;;43.30;17.12;;;;;;;14.92;75.30;101587.42;1820190;78;21320;-79
2021/10/23 05:25:50;;;;;;;47.73;18.17;;;;;;;14.92;75.33;101596.39;1817778;77;21193;-75
2021/10/23 05:28:23;;;;;;;42.35;17.05;;;;;;;14.93;75.42;101603.13;1811538;78;21305;-76
2021/10/23 05:30:56;;;;;;;48.33;19.55;;;;;;;14.97;75.52;101602.86;1811588;79;22023;-79
2021/10/23 05:33:29;;;;;;;42.67;17.75;;;;;;;15.02;75.54;101605.70;1811459;79;21256;-74
2021/10/23 05:36:02;;;;;;;52.33;19.30;;;;;;;15.04;75.52;101604.87;1813692;78;21301;-78
2021/10/23 05:38:36;;;;;;;52.85;18.52;;;;;;;15.06;75.51;101608.27;1801398;78;21230;-76
2021/10/23 05:41:13;;;;;;;40.40;17.92;;;;;;;15.03;75.63;101614.38;1702568;82;21679;-76
2021/10/23 05:43:48;;;;;;;45.00;18.05;;;;;;;15.06;75.84;101619.99;1766088;80;21210;-77
2021/10/23 05:46:21;;;;;;;40.58;17.85;;;;;;;15.12;75.85;101621.72;1737333;82;21478;-75
2021/10/23 05:48:57;;;;;;;48.85;19.12;;;;;;;15.13;75.71;101615.87;1729797;81;21328;-77
2021/10/23 05:51:29;;;;;;;49.30;19.32;;;;;;;15.10;75.90;101614.98;1800050;79;21444;-76
2021/10/23 05:54:02;;;;;;;49.03;19.97;;;;;;;15.13;76.06;101621.47;1734892;82;21328;-76
2021/10/23 05:56:34;;;;;;;51.88;18.70;;;;;;;15.11;76.07;101624.23;1802515;79;21150;-77
2021/10/23 05:59:14;;;;;;;55.33;19.23;;;;;;;15.10;76.22;101630.37;1737651;82;21357;-76
2021/10/23 06:01:55;;;;;;;49.88;18.80;;;;;;;15.07;76.29;101632.86;1806439;79;21337;-77
2021/10/23 06:04:21;;;;;;;42.35;18.67;;;;;;;15.06;76.26;101645.17;1732876;82;21719;-76
2021/10/23 06:06:55;;;;;;;45.48;17.92;;;;;;;15.05;76.32;101651.34;1749640;81;21170;-75
2021/10/23 06:09:28;;;;;;;50.70;18.57;;;;;;;15.04;76.43;101648.22;1749113;81;21226;-76
2021/10/23 06:12:11;;;;;;;57.93;19.85;;;;;;;15.06;76.45;101655.82;1751650;81;21373;-78
2021/10/23 06:14:44;;;;;;;46.42;18.27;;;;;;;15.09;76.23;101656.67;1802326;79;21676;-77
2021/10/23 06:17:19;;;;;;;84.55;22.82;;;;;;;15.10;76.14;101652.75;1740007;82;21385;-80
2021/10/23 06:19:54;;;;;;;62.43;21.93;;;;;;;15.10;76.08;101656.13;1805717;79;21691;-80
2021/10/23 06:22:27;;;;;;;67.35;22.22;;;;;;;15.13;76.06;101653.64;1805615;79;21839;-76
2021/10/23 06:25:05;;;;;;;67.92;22.07;;;;;;;15.15;75.92;101656.17;1741938;82;21195;-80
2021/10/23 06:27:38;;;;;;;69.40;22.67;;;;;;;15.15;75.87;101665.39;1743739;82;21249;-77
2021/10/23 06:30:11;;;;;;;66.20;24.07;;;;;;;15.16;75.94;101678.27;1749020;80;21399;-79
2021/10/23 06:32:49;;;;;;;77.85;27.37;;;;;;;15.16;75.69;101672.67;1810660;78;21316;-76
2021/10/23 06:35:21;;;;;;;77.25;26.48;;;;;;;15.16;75.58;101685.27;1749389;82;21340;-77
2021/10/23 06:37:55;;;;;;;79.03;28.35;;;;;;;15.20;75.16;101699.02;1749235;82;21199;-77
2021/10/23 06:40:28;;;;;;;75.35;27.82;;;;;;;15.26;74.84;101700.75;1749786;82;21838;-77
2021/10/23 06:43:02;;;;;;;64.75;26.07;;;;;;;15.30;72.70;101714.52;1724872;83;21209;-78
2021/10/23 06:45:36;;;;;;;55.92;24.37;;;;;;;15.30;72.70;101714.52;1724679;83;21198;-77
2021/10/23 06:48:11;;;;;;;61.58;22.15;;;;;;;15.33;71.04;101717.38;1717711;83;21423;-77
2021/10/23 06:50:46;;;;;;;51.35;19.10;;;;;;;15.35;70.28;101729.98;1715257;83;21767;-78
2021/10/23 06:53:23;;;;;;;44.70;18.05;;;;;;;15.38;69.39;101735.58;1715875;83;21759;-76
2021/10/23 06:55:59;;;;;;;40.75;17.57;;;;;;;15.38;68.67;101733.64;1604723;89;21367;-79
2021/10/23 06:58:31;;;;;;;37.78;18.00;;;;;;;15.40;68.28;101728.61;1604889;89;21742;-82
2021/10/23 07:01:05;;;;;;;42.70;18.62;;;;;;;15.38;67.86;101722.98;1655864;83;21325;-79
2021/10/23 07:03:40;;;;;;;47.33;20.85;;;;;;;15.36;67.62;101726.08;1714815;83;21347;-79
2021/10/23 07:06:14;;;;;;;49.23;20.85;;;;;;;15.35;67.27;101731.39;1715025;83;21246;-81
2021/10/23 07:08:47;;;;;;;43.95;18.70;;;;;;;15.35;67.05;101735.59;1690648;83;21733;-80
2021/10/23 07:11:22;;;;;;;40.55;18.12;;;;;;;15.37;66.78;101739.50;1686719;83;21794;-80
2021/10/23 07:14:02;;;;;;;31.68;16.00;;;;;;;15.37;66.40;101741.75;1699782;80;21180;-82
2021/10/23 07:16:39;;;;;;;36.68;16.25;;;;;;;15.37;65.73;101751.55;1760719;79;21182;-82
2021/10/23 07:19:13;;;;;;;30.00;14.45;;;;;;;15.37;65.47;101746.48;1762976;80;21306;-80
2021/10/23 07:21:46;;;;;;;32.00;15.10;;;;;;;15.36;65.36;101755.46;1762362;80;21194;-80
2021/10/23 07:24:29;;;;;;;35.33;14.20;;;;;;;15.38;65.32;101754.63;1764379;80;21332;-84
2021/10/23 07:27:08;;;;;;;24.85;13.83;;;;;;;15.37;65.36;101747.34;1751174;80;21178;-77
2021/10/23 07:29:43;;;;;;;28.47;14.38;;;;;;;15.37;65.16;101749.29;1828879;77;21228;-75
2021/10/23 07:32:17;;;;;;;29.95;14.95;;;;;;;15.35;65.38;101748.72;1812258;77;21362;-77
2021/10/23 07:34:50;;;;;;;34.25;16.45;;;;;;;15.32;65.79;101752.89;1823386;77;21165;-77
2021/10/23 07:37:25;;;;;;;31.48;14.73;;;;;;;15.29;66.80;101750.61;1814885;77;21447;-77
2021/10/23 07:40:01;;;;;;;27.30;13.55;;;;;;;15.26;67.91;101748.87;1820868;78;21846;-77
2021/10/23 07:42:37;;;;;;;39.35;14.95;;;;;;;15.22;68.81;101751.36;1786971;77;21372;-76
2021/10/23 07:45:12;;;;;;;35.85;15.13;;;;;;;15.19;69.53;101749.10;1740021;81;21172;-76
2021/10/23 07:47:46;;;;;;;35.00;14.98;;;;;;;15.18;70.41;101753.02;1742263;81;21188;-75
2021/10/23 07:50:18;;;;;;;33.45;14.47;;;;;;;15.17;71.47;101755.53;1741260;81;21207;-78
2021/10/23 07:52:52;;;;;;;34.90;13.32;;;;;;;15.13;72.30;101747.36;1761932;81;21293;-77
2021/10/23 07:55:24;;;;;;;35.10;16.57;;;;;;;15.06;72.83;101748.13;1765950;81;21159;-80
2021/10/23 07:57:57;;;;;;;53.35;26.25;;;;;;;15.03;73.80;101740.25;1765649;81;21392;-78
2021/10/23 08:00:31;;;;;;;37.35;18.48;;;;;;;15.02;74.80;101735.77;1764146;81;21329;-78
2021/10/23 08:03:06;;;;;;;33.80;17.62;;;;;;;15.04;75.37;101736.34;1769968;81;21263;-75
2021/10/23 08:05:39;;;;;;;37.42;19.62;;;;;;;15.05;75.88;101745.59;1767055;80;21368;-79
2021/10/23 08:08:11;;;;;;;49.40;22.05;;;;;;;15.05;76.09;101745.59;1797351;80;21309;-78
2021/10/23 08:10:44;;;;;;;65.23;30.33;;;;;;;15.04;76.43;101745.31;1795779;80;21850;-76
2021/10/23 08:13:17;;;;;;;63.77;26.30;;;;;;;15.04;76.89;101743.91;1794321;80;21305;-80
2021/10/23 08:15:50;;;;;;;62.90;27.75;;;;;;;15.04;77.22;101734.94;1796095;80;21171;-76
2021/10/23 08:18:24;;;;;;;48.58;24.25;;;;;;;15.04;77.30;101739.71;1794205;80;21874;-77
2021/10/23 08:21:00;;;;;;;85.15;36.33;;;;;;;15.02;77.52;101744.17;1789694;80;21649;-74
2021/10/23 08:23:33;;;;;;;135.12;56.18;;;;;;;14.96;77.76;101743.82;1775096;80;21333;-76
2021/10/23 08:26:14;;;;;;;71.53;31.57;;;;;;;14.89;78.31;101749.33;1794040;80;21325;-75
2021/10/23 08:28:48;;;;;;;54.65;23.90;;;;;;;14.75;78.63;101790.00;1797434;80;21182;-77
2021/10/23 08:31:24;;;;;;;70.85;39.03;;;;;;;14.59;79.29;101763.80;1797202;80;21324;-76
2021/10/23 08:33:59;;;;;;;73.33;36.05;;;;;;;14.49;79.74;101765.06;1797680;80;21171;-75
2021/10/23 08:36:32;;;;;;;67.53;32.60;;;;;;;14.46;80.25;101768.94;1797665;80;21424;-76
2021/10/23 08:39:06;;;;;;;58.80;32.30;;;;;;;14.50;81.06;101780.75;1797581;79;21218;-73
2021/10/23 08:41:38;;;;;;;63.40;30.27;;;;;;;14.59;81.70;101783.38;1797829;80;21218;-78
2021/10/23 08:44:22;;;;;;;66.35;30.48;;;;;;;14.69;82.22;101777.06;1792967;78;21380;-74
2021/10/23 08:46:58;;;;;;;62.53;31.75;;;;;;;14.82;82.38;101785.91;1794723;78;21321;-73
2021/10/23 08:49:30;;;;;;;60.43;29.55;;;;;;;14.96;82.44;101789.97;1777092;80;21325;-74
2021/10/23 08:52:05;;;;;;;59.85;30.25;;;;;;;15.04;82.46;101788.09;1769692;80;21335;-73
2021/10/23 08:54:40;;;;;;;59.25;27.42;;;;;;;15.03;82.30;101777.19;1776267;80;21312;-73
2021/10/23 08:57:11;;;;;;;60.35;29.85;;;;;;;14.96;82.31;101780.19;1773996;80;21178;-75
2021/10/23 08:59:45;;;;;;;70.17;37.40;;;;;;;14.94;82.37;101788.00;1761009;81;21224;-75
2021/10/23 09:02:20;;;;;;;;;;;;;;;15.00;82.78;101789.75;1771585;80;21894;-81
2021/10/23 09:04:58;;;;;;;68.85;34.75;;;;;;;14.98;82.71;101791.12;1773404;80;20192;-74
2021/10/23 09:07:33;;;;;;;73.70;29.18;;;;;;;15.00;83.23;101795.89;1768342;80;21359;-71
2021/10/23 09:10:09;;;;;;;63.37;32.70;;;;;;;15.09;83.54;101797.13;1760127;80;21214;-81
2021/10/23 09:12:42;;;;;;;72.03;30.72;;;;;;;15.19;83.58;101792.47;1768647;80;21393;-75
2021/10/23 09:15:17;;;;;;;75.00;29.98;;;;;;;15.20;83.37;101788.56;1765723;80;21217;-74
2021/10/23 09:17:55;;;;;;;67.47;27.87;;;;;;;15.18;83.61;101789.39;1733288;82;21204;-74
2021/10/23 09:20:28;;;;;;;62.55;28.73;;;;;;;15.23;83.76;101783.85;1764233;80;21736;-83
2021/10/23 09:23:02;;;;;;;69.95;29.57;;;;;;;15.29;83.75;101784.20;1772085;80;21362;-76
2021/10/23 09:25:41;;;;;;;74.45;31.27;;;;;;;15.38;83.65;101782.62;1751382;80;21154;-87
2021/10/23 09:28:16;;;;;;;102.07;46.10;;;;;;;15.43;83.32;101781.27;1756303;79;21285;-76
2021/10/23 09:30:52;;;;;;;97.72;51.20;;;;;;;15.41;83.25;101777.88;1804752;79;21862;-85
2021/10/23 09:33:27;;;;;;;92.87;46.33;;;;;;;15.45;83.43;101772.62;1811759;79;21170;-83
2021/10/23 09:36:03;;;;;;;78.97;40.17;;;;;;;15.53;83.45;101777.14;1775559;81;21312;-90
2021/10/23 09:38:37;;;;;;;93.50;40.20;;;;;;;15.59;83.44;101773.86;1775321;79;21182;-74
2021/10/23 09:41:26;;;;;;;80.62;36.08;;;;;;;15.65;83.15;101769.41;1775201;81;21223;-73
2021/10/23 09:44:18;;;;;;;80.53;34.92;;;;;;;15.67;82.87;101769.15;1770777;79;21309;-87
2021/10/23 09:46:55;;;;;;;68.70;32.13;;;;;;;15.72;82.68;101770.05;1771167;79;21295;-76
2021/10/23 09:49:32;;;;;;;72.32;32.85;;;;;;;15.80;82.30;101768.14;1767947;79;21329;-81
2021/10/23 09:52:09;;;;;;;65.30;32.85;;;;;;;15.85;81.94;101765.39;1784699;79;21214;-74
2021/10/23 09:54:43;;;;;;;65.37;28.07;;;;;;;15.93;82.12;101771.88;1787667;79;21289;-73
2021/10/23 09:57:19;;;;;;;52.60;26.10;;;;;;;16.01;82.28;101775.57;1801786;79;21198;-73
2021/10/23 09:59:52;;;;;;;54.58;26.42;;;;;;;16.06;82.06;101779.81;1801324;79;21360;-81
2021/10/23 10:02:27;;;;;;;59.18;27.00;;;;;;;16.12;81.98;101781.53;1780534;79;21814;-81
2021/10/23 10:05:02;;;;;;;51.20;27.20;;;;;;;16.22;81.87;101778.81;1781382;80;21221;-72
2021/10/23 10:07:35;;;;;;;57.95;29.87;;;;;;;16.30;81.61;101778.28;1746429;82;21344;-76
2021/10/23 10:10:09;;;;;;;59.67;26.70;;;;;;;16.33;80.60;101765.97;1764360;80;21172;-84
2021/10/23 10:12:42;;;;;;;43.75;22.98;;;;;;;16.39;80.42;101761.28;1812146;78;21348;-72
2021/10/23 10:15:15;;;;;;;39.88;20.20;;;;;;;16.44;80.39;101769.15;1795233;79;21269;-77
2021/10/23 10:17:47;;;;;;;38.55;18.75;;;;;;;16.49;79.29;101762.72;1816425;78;21336;-87
2021/10/23 10:20:20;;;;;;;37.53;18.57;;;;;;;16.56;78.69;101768.37;1810811;78;21364;-81
2021/10/23 10:22:57;;;;;;;46.83;20.23;;;;;;;16.56;77.56;101768.91;1809224;78;21179;-72
2021/10/23 10:25:30;;;;;;;39.92;18.00;;;;;;;16.55;76.88;101766.69;1803870;78;21190;-74
2021/10/23 10:28:12;;;;;;;37.63;18.32;;;;;;;16.56;76.35;101761.35;1803702;78;21388;-71
2021/10/23 10:30:47;;;;;;;39.55;17.40;;;;;;;16.59;75.84;101759.39;1816842;78;21219;-71
2021/10/23 10:33:42;;;;;;;37.95;17.20;;;;;;;16.61;75.06;101763.33;1810878;78;21149;-74
2021/10/23 10:36:19;;;;;;;35.55;15.50;;;;;;;16.65;74.63;101755.48;1801255;78;21703;-80
2021/10/23 10:39:04;;;;;;;28.15;14.60;;;;;;;16.67;74.49;101753.81;1799868;79;21397;-75
2021/10/23 10:44:14;;;;;;;34.30;15.48;;;;;;;16.82;74.83;101752.48;1803233;79;21314;-79
2021/10/23 10:47:07;;;;;;;25.60;13.43;;;;;;;16.85;73.87;101749.11;1805857;78;21207;-74
2021/10/23 10:49:55;;;;;;;27.05;13.22;;;;;;;16.88;73.05;101750.80;1801130;78;21352;-74
2021/10/23 10:52:52;;;;;;;27.93;13.32;;;;;;;16.90;72.26;101748.59;1806391;78;21383;-73
2021/10/23 10:55:27;;;;;;;23.65;11.35;;;;;;;16.93;72.45;101745.21;1806737;78;21340;-73
2021/10/23 10:58:09;;;;;;;;;;;;;;;16.95;71.27;101740.73;1805948;78;21447;-75
2021/10/23 11:01:22;;;;;;;20.37;9.18;;;;;;;17.00;71.71;101739.34;1804374;78;20322;-80
2021/10/23 11:04:10;;;;;;;22.82;10.80;;;;;;;17.08;71.50;101745.23;1816739;78;21206;-79
2021/10/23 11:06:52;;;;;;;22.90;9.83;;;;;;;17.14;71.37;101737.68;1812577;78;21162;-79
2021/10/23 11:09:33;;;;;;;17.73;8.08;;;;;;;17.23;71.09;101741.06;1803003;78;22117;-77
2021/10/23 11:12:15;;;;;;;16.05;7.75;;;;;;;17.29;71.09;101747.52;1801100;78;21230;-79
2021/10/23 11:14:52;;;;;;;12.20;6.60;;;;;;;17.31;70.83;101744.71;1797799;79;21170;-81
2021/10/23 11:17:26;;;;;;;9.83;5.03;;;;;;;17.36;70.21;101742.46;1805695;78;21261;-78
2021/10/23 11:20:00;;;;;;;12.18;4.85;;;;;;;17.38;69.31;101744.48;1799781;78;21223;-77
2021/10/23 11:22:36;;;;;;;11.90;4.78;;;;;;;17.42;69.41;101742.78;1802708;79;21223;-77
2021/10/23 11:25:12;;;;;;;16.50;4.67;;;;;;;17.47;69.27;101738.03;1803983;79;21186;-78
2021/10/23 11:27:47;;;;;;;13.22;5.00;;;;;;;17.51;69.21;101743.92;1802161;79;21194;-78
2021/10/23 11:33:04;;;;;;;15.63;5.42;;;;;;;17.56;68.75;101743.34;1797343;79;21361;-77
2021/10/23 11:35:40;;;;;;;9.95;4.87;;;;;;;17.58;68.24;101736.91;1799469;78;21158;-77
2021/10/23 11:38:27;;;;;;;10.08;4.80;;;;;;;17.62;67.98;101738.59;1803016;78;21250;-76
2021/10/23 11:41:03;;;;;;;10.68;4.60;;;;;;;17.68;67.83;101729.04;1808421;78;21221;-78
2021/10/23 11:43:38;;;;;;;13.95;4.47;;;;;;;17.69;67.29;101722.29;1818485;78;21337;-78
2021/10/23 11:46:15;;;;;;;12.85;5.30;;;;;;;17.69;66.40;101723.70;1809423;78;21792;-78
2021/10/23 11:49:06;;;;;;;11.57;5.42;;;;;;;17.69;66.07;101719.48;1815773;78;21253;-77
2021/10/23 11:51:43;;;;;;;19.42;7.30;;;;;;;17.70;67.14;101716.95;1789981;77;21174;-74
2021/10/23 11:54:16;;;;;;;13.43;5.92;;;;;;;17.70;67.87;101714.99;1800734;79;21160;-79
2021/10/23 11:56:50;;;;;;;12.90;5.33;;;;;;;17.70;67.40;101714.14;1801679;78;21329;-79
2021/10/23 11:59:26;;;;;;;10.32;4.53;;;;;;;17.67;67.84;101711.33;1733006;80;21313;-78